createdAt,value
2022-09-11T11:56:32.341Z,18.60
2022-09-11T11:59:19.242Z,18.80
2022-09-11T12:01:54.668Z,18.80
2022-09-11T12:04:50.491Z,18.90
2022-09-11T12:07:34.284Z,19.00
2022-09-11T12:10:03.164Z,19.10
2022-09-11T12:12:34.052Z,19.20
2022-09-11T12:15:10.007Z,19.00
2022-09-11T12:17:39.846Z,19.00
2022-09-11T12:20:09.702Z,19.10
2022-09-11T12:22:46.907Z,19.20
2022-09-11T12:25:19.865Z,19.20
2022-09-11T12:27:46.566Z,19.30
2022-09-11T12:30:27.938Z,19.30
2022-09-11T12:33:01.246Z,19.40
2022-09-11T12:35:45.483Z,19.70
2022-09-11T12:38:22.407Z,19.70
2022-09-11T12:41:03.549Z,19.70
2022-09-11T12:43:36.353Z,19.60
2022-09-11T12:46:29.830Z,19.50
2022-09-11T12:49:22.463Z,19.30
2022-09-11T12:51:58.572Z,19.20
2022-09-11T12:54:41.121Z,19.20
2022-09-11T12:57:19.247Z,19.10
2022-09-11T12:59:53.454Z,19.50
2022-09-11T13:02:35.555Z,19.50
2022-09-11T13:05:04.701Z,19.40
2022-09-11T13:07:43.252Z,19.20
2022-09-11T13:10:33.426Z,19.10
2022-09-11T13:13:03.443Z,19.00
2022-09-11T13:15:38.920Z,19.20
2022-09-11T13:18:35.558Z,19.40
2022-09-11T13:21:14.037Z,20.00
2022-09-11T13:23:42.958Z,20.10
2022-09-11T13:26:18.205Z,19.90
2022-09-11T13:28:50.391Z,19.70
2022-09-11T13:31:37.857Z,19.60
2022-09-11T13:34:13.478Z,19.40
2022-09-11T13:36:47.213Z,19.30
2022-09-11T13:39:15.923Z,19.10
2022-09-11T13:41:44.483Z,19.00
2022-09-11T13:44:32.863Z,19.00
2022-09-11T13:47:00.557Z,18.90
2022-09-11T13:49:37.190Z,18.80
2022-09-11T13:52:06.311Z,18.70
2022-09-11T13:54:48.410Z,18.70
2022-09-11T13:57:17.382Z,18.70
2022-09-11T13:59:50.573Z,18.70
2022-09-11T14:02:38.078Z,18.70
2022-09-11T14:05:23.639Z,18.70
2022-09-11T14:08:31.591Z,18.80
2022-09-11T14:11:06.265Z,19.00
2022-09-11T14:13:45.462Z,19.10
2022-09-11T14:16:14.969Z,19.10
2022-09-11T14:18:55.485Z,19.20
2022-09-11T14:21:25.494Z,19.10
2022-09-11T14:23:54.957Z,19.00
2022-09-11T14:26:24.222Z,19.00
2022-09-11T14:28:58.196Z,19.00
2022-09-11T14:31:38.116Z,19.20
2022-09-11T14:34:11.179Z,19.20
2022-09-11T14:36:41.723Z,19.20
2022-09-11T14:39:24.679Z,19.30
2022-09-11T14:41:53.130Z,19.20
2022-09-11T14:44:22.172Z,19.10
2022-09-11T14:46:49.065Z,19.00
2022-09-11T14:49:16.139Z,19.00
2022-09-11T14:51:43.254Z,19.00
2022-09-11T14:54:21.199Z,18.90
2022-09-11T14:56:49.195Z,18.80
2022-09-11T14:59:16.353Z,18.80
2022-09-11T15:01:43.212Z,18.70
2022-09-11T15:04:21.701Z,18.70
2022-09-11T15:06:59.808Z,18.60
2022-09-11T15:09:26.623Z,18.60
2022-09-11T15:11:53.432Z,18.60
2022-09-11T15:14:44.762Z,18.50
2022-09-11T15:17:10.646Z,18.50
2022-09-11T15:19:38.141Z,18.50
2022-09-11T15:22:06.129Z,18.50
2022-09-11T15:24:33.210Z,18.50
2022-09-11T15:27:01.145Z,18.50
2022-09-11T15:29:31.510Z,18.50
2022-09-11T15:32:01.262Z,18.50
2022-09-11T15:34:31.727Z,18.50
2022-09-11T15:36:58.564Z,18.50
2022-09-11T15:39:26.036Z,18.50
2022-09-11T15:41:57.727Z,18.50
2022-09-11T15:44:25.695Z,18.40
2022-09-11T15:46:53.952Z,18.30
2022-09-11T15:49:22.876Z,18.30
2022-09-11T15:51:54.116Z,18.20
2022-09-11T15:54:23.225Z,18.20
2022-09-11T15:56:50.947Z,18.20
2022-09-11T15:59:18.038Z,18.10
2022-09-11T16:01:46.107Z,18.10
2022-09-11T16:04:15.203Z,18.00
2022-09-11T16:06:45.623Z,18.00
2022-09-11T16:09:18.359Z,18.10
2022-09-11T16:11:47.063Z,18.10
2022-09-11T16:14:23.263Z,18.10
2022-09-11T16:16:50.800Z,18.10
2022-09-11T16:19:20.568Z,18.10
2022-09-11T16:21:48.279Z,18.10
2022-09-11T16:24:15.562Z,18.10
2022-09-11T16:26:45.802Z,18.10
2022-09-11T16:29:17.084Z,18.10
2022-09-11T16:31:44.491Z,18.00
2022-09-11T16:34:12.001Z,18.00
2022-09-11T16:36:44.969Z,18.00
2022-09-11T16:39:19.087Z,18.00
2022-09-11T16:41:46.069Z,17.90
2022-09-11T16:44:16.200Z,17.80
2022-09-11T16:46:46.985Z,17.80
2022-09-11T16:49:16.572Z,17.80
2022-09-11T16:51:45.283Z,17.70
2022-09-11T16:54:12.217Z,17.60
2022-09-11T16:56:42.719Z,17.60
2022-09-11T16:59:12.672Z,17.50
2022-09-11T17:01:40.292Z,17.40
2022-09-11T17:04:07.203Z,17.40
2022-09-11T17:06:34.149Z,17.30
2022-09-11T17:09:02.636Z,17.30
2022-09-11T17:11:31.803Z,17.20
2022-09-11T17:14:01.435Z,17.20
2022-09-11T17:16:31.366Z,17.10
2022-09-11T17:18:59.934Z,17.00
2022-09-11T17:21:27.474Z,16.90
2022-09-11T17:23:58.530Z,16.80
2022-09-11T17:26:25.419Z,16.80
2022-09-11T17:28:55.627Z,16.70
2022-09-11T17:31:22.454Z,16.60
2022-09-11T17:33:49.955Z,16.50
2022-09-11T17:36:19.444Z,16.40
2022-09-11T17:38:48.281Z,16.30
2022-09-11T17:41:17.633Z,16.20
2022-09-11T17:43:44.973Z,16.10
2022-09-11T17:46:15.146Z,16.10
2022-09-11T17:48:43.012Z,16.00
2022-09-11T17:51:20.089Z,15.90
2022-09-11T17:53:52.990Z,15.80
2022-09-11T17:56:21.980Z,15.80
2022-09-11T17:58:53.388Z,15.70
2022-09-11T18:01:20.618Z,15.60
2022-09-11T18:03:52.574Z,15.60
2022-09-11T18:06:31.059Z,15.50
2022-09-11T18:09:01.626Z,15.40
2022-09-11T18:11:29.970Z,15.30
2022-09-11T18:13:56.832Z,15.20
2022-09-11T18:16:23.591Z,15.20
2022-09-11T18:18:50.332Z,15.20
2022-09-11T18:21:17.438Z,15.20
2022-09-11T18:23:46.236Z,15.10
2022-09-11T18:26:22.183Z,15.10
2022-09-11T18:28:50.309Z,15.00
2022-09-11T18:31:17.249Z,15.00
2022-09-11T18:33:44.290Z,15.00
2022-09-11T18:36:12.392Z,15.00
2022-09-11T18:38:39.870Z,15.00
2022-09-11T18:41:06.536Z,14.90
2022-09-11T18:43:33.252Z,14.90
2022-09-11T18:46:02.797Z,14.80
2022-09-11T18:48:29.737Z,14.90
2022-09-11T18:50:56.521Z,14.90
2022-09-11T18:53:23.467Z,14.80
2022-09-11T18:56:00.383Z,14.80
2022-09-11T18:58:32.579Z,14.90
2022-09-11T19:01:02.611Z,14.80
2022-09-11T19:03:32.696Z,14.70
2022-09-11T19:06:04.384Z,14.70
2022-09-11T19:08:32.132Z,14.70
2022-09-11T19:11:00.221Z,14.60
2022-09-11T19:13:27.758Z,14.50
2022-09-11T19:16:00.312Z,14.50
2022-09-11T19:18:27.293Z,14.40
2022-09-11T19:21:00.198Z,14.40
2022-09-11T19:23:33.518Z,14.40
2022-09-11T19:26:08.658Z,14.40
2022-09-11T19:28:35.650Z,14.30
2022-09-11T19:31:03.335Z,14.30
2022-09-11T19:33:31.495Z,14.30
2022-09-11T19:36:04.465Z,14.30
2022-09-11T19:38:33.040Z,14.30
2022-09-11T19:41:00.875Z,14.30
2022-09-11T19:43:32.726Z,14.30
2022-09-11T19:46:06.553Z,14.20
2022-09-11T19:48:37.781Z,14.20
2022-09-11T19:51:13.536Z,14.10
2022-09-11T19:53:41.206Z,14.20
2022-09-11T19:56:11.380Z,14.10
2022-09-11T19:58:46.638Z,14.10
2022-09-11T20:01:15.785Z,14.00
2022-09-11T20:03:48.083Z,14.00
2022-09-11T20:06:16.451Z,14.00
2022-09-11T20:08:45.749Z,13.90
2022-09-11T20:11:17.677Z,13.80
2022-09-11T20:13:44.623Z,13.70
2022-09-11T20:16:15.090Z,13.60
2022-09-11T20:18:42.894Z,13.60
2022-09-11T20:21:16.001Z,13.60
2022-09-11T20:23:44.237Z,13.60
2022-09-11T20:26:23.580Z,13.50
2022-09-11T20:29:07.048Z,13.50
2022-09-11T20:31:47.001Z,13.40
2022-09-11T20:34:18.506Z,13.40
2022-09-11T20:36:46.090Z,13.30
2022-09-11T20:39:13.810Z,13.30
2022-09-11T20:41:40.930Z,13.20
2022-09-11T20:44:07.745Z,13.20
2022-09-11T20:46:34.579Z,13.20
2022-09-11T20:49:02.964Z,13.10
2022-09-11T20:51:29.731Z,13.10
2022-09-11T20:53:57.156Z,13.00
2022-09-11T20:56:24.136Z,13.00
2022-09-11T20:58:52.012Z,12.90
2022-09-11T21:01:21.806Z,12.90
2022-09-11T21:03:51.240Z,12.90
2022-09-11T21:06:22.067Z,12.90
2022-09-11T21:08:53.925Z,12.80
2022-09-11T21:11:20.857Z,12.80
2022-09-11T21:13:47.670Z,12.70
2022-09-11T21:16:16.018Z,12.70
2022-09-11T21:18:51.496Z,12.60
2022-09-11T21:21:19.779Z,12.60
2022-09-11T21:23:46.691Z,12.60
2022-09-11T21:26:15.198Z,12.50
2022-09-11T21:28:42.303Z,12.40
2022-09-11T21:31:09.433Z,12.50
2022-09-11T21:33:36.881Z,12.40
2022-09-11T21:36:05.065Z,12.40
2022-09-11T21:38:32.037Z,12.40
2022-09-11T21:41:01.051Z,12.40
2022-09-11T21:43:28.181Z,12.40
2022-09-11T21:45:54.949Z,12.30
2022-09-11T21:48:22.265Z,12.30
2022-09-11T21:50:49.277Z,12.20
2022-09-11T21:53:16.089Z,12.20
2022-09-11T21:55:45.809Z,12.10
2022-09-11T21:58:19.102Z,12.10
2022-09-11T22:00:48.100Z,12.00
2022-09-11T22:03:16.682Z,12.00
2022-09-11T22:05:45.144Z,11.90
2022-09-11T22:08:13.405Z,11.80
2022-09-11T22:10:49.348Z,11.80
2022-09-11T22:13:18.299Z,11.80
2022-09-11T22:15:47.467Z,11.70
2022-09-11T22:18:15.175Z,11.70
2022-09-11T22:20:42.706Z,11.60
2022-09-11T22:23:17.273Z,11.60
2022-09-11T22:25:45.377Z,11.60
2022-09-11T22:28:12.672Z,11.50
2022-09-11T22:30:43.778Z,11.50
2022-09-11T22:33:10.787Z,11.50
2022-09-11T22:35:37.573Z,11.50
2022-09-11T22:38:04.305Z,11.50
2022-09-11T22:40:31.290Z,11.50
2022-09-11T22:42:58.192Z,11.40
2022-09-11T22:45:25.125Z,11.40
2022-09-11T22:47:51.946Z,11.40
2022-09-11T22:50:18.876Z,11.40
2022-09-11T22:52:45.581Z,11.30
2022-09-11T22:55:12.457Z,11.30
2022-09-11T22:57:39.451Z,11.30
2022-09-11T23:00:09.462Z,11.30
2022-09-11T23:02:37.072Z,11.30
2022-09-11T23:05:24.173Z,11.30
2022-09-11T23:07:52.434Z,11.20
2022-09-11T23:10:23.472Z,11.10
2022-09-11T23:12:51.957Z,11.10
2022-09-11T23:15:19.286Z,11.10
2022-09-11T23:17:46.087Z,11.10
2022-09-11T23:20:12.836Z,11.10
2022-09-11T23:22:39.546Z,11.10
2022-09-11T23:25:07.072Z,11.00
2022-09-11T23:27:33.767Z,11.00
2022-09-11T23:30:00.455Z,11.00
2022-09-11T23:32:27.191Z,11.00
2022-09-11T23:34:54.032Z,11.00
2022-09-11T23:37:20.972Z,11.00
2022-09-11T23:42:15.634Z,10.90
2022-09-11T23:44:42.366Z,10.80
2022-09-11T23:47:09.185Z,10.80
2022-09-11T23:49:36.658Z,10.80
2022-09-11T23:52:04.579Z,10.80
2022-09-11T23:54:31.488Z,10.80
2022-09-11T23:57:01.187Z,10.80
2022-09-11T23:59:28.002Z,10.70
